Time;durP1;ratioP1;P1;durP2;ratioP2;P2;SDS_P1;SDS_P2;PMS_P1;PMS_P2;Temp;Humidity;BMP_temperature;BMP_pressure;BME280_temperature;BME280_humidity;BME280_pressure;Samples;Min_cycle;Max_cycle;Signal;HPM_P1;HPM_P2
2024/03/11 00:00:33;;;;;;;6.35;5.00;;;;;;;;;;6273604;22;20011;-72
2024/03/11 00:02:59;;;;;;;9.00;4.90;;;;;;;;;;6272531;22;20011;-72
2024/03/11 00:05:27;;;;;;;5.32;4.88;;;;;;;;;;6271537;22;20043;-72
2024/03/11 00:07:56;;;;;;;11.68;5.25;;;;;;;;;;6246208;22;20012;-73
2024/03/11 00:10:23;;;;;;;8.55;4.63;;;;;;;;;;6273476;22;20019;-73
2024/03/11 00:12:51;;;;;;;5.35;3.83;;;;;;;;;;6271961;22;20038;-73
2024/03/11 00:15:23;;;;;;;5.85;4.10;;;;;;;;;;6273180;22;20094;-73
2024/03/11 00:17:50;;;;;;;7.97;5.38;;;;;;;;;;6247902;22;20019;-73
2024/03/11 00:20:16;;;;;;;10.48;4.13;;;;;;;;;;6297711;22;20011;-73
2024/03/11 00:22:42;;;;;;;8.23;5.18;;;;;;;;;;6274071;22;20431;-74
2024/03/11 00:25:08;;;;;;;7.95;4.90;;;;;;;;;;6273305;22;20099;-73
2024/03/11 00:27:37;;;;;;;10.00;3.88;;;;;;;;;;6272885;22;20095;-72
2024/03/11 00:30:04;;;;;;;9.65;4.32;;;;;;;;;;6272127;22;20444;-72
2024/03/11 00:32:30;;;;;;;8.88;4.35;;;;;;;;;;6272872;22;20475;-72
2024/03/11 00:34:56;;;;;;;14.15;4.47;;;;;;;;;;6272211;22;20015;-72
2024/03/11 00:37:22;;;;;;;5.20;4.70;;;;;;;;;;6245995;22;20049;-72
2024/03/11 00:39:48;;;;;;;6.43;3.55;;;;;;;;;;6271652;22;20003;-72
2024/03/11 00:42:13;;;;;;;8.25;5.78;;;;;;;;;;6246478;22;20042;-72
2024/03/11 00:44:39;;;;;;;7.10;3.83;;;;;;;;;;6271821;22;20072;-72
2024/03/11 00:47:06;;;;;;;9.25;4.50;;;;;;;;;;6272805;22;20012;-73
2024/03/11 00:49:36;;;;;;;11.05;5.70;;;;;;;;;;6271418;22;20019;-72
2024/03/11 00:52:02;;;;;;;15.07;5.15;;;;;;;;;;6297327;22;20459;-72
2024/03/11 00:54:28;;;;;;;14.68;4.57;;;;;;;;;;6271811;22;20061;-73
2024/03/11 00:56:55;;;;;;;9.13;5.50;;;;;;;;;;6273096;22;20119;-73
2024/03/11 00:59:21;;;;;;;18.98;8.30;;;;;;;;;;6273116;22;20444;-73
2024/03/11 01:01:47;;;;;;;11.73;7.07;;;;;;;;;;6274100;22;20012;-73
2024/03/11 01:04:14;;;;;;;20.23;7.95;;;;;;;;;;6272206;22;20032;-74
2024/03/11 01:06:40;;;;;;;10.07;6.13;;;;;;;;;;6271401;22;20394;-73
2024/03/11 01:09:06;;;;;;;18.45;9.15;;;;;;;;;;6273158;22;20043;-73
2024/03/11 01:11:32;;;;;;;17.23;8.93;;;;;;;;;;6270992;22;20102;-73
2024/03/11 01:14:00;;;;;;;20.15;11.70;;;;;;;;;;6272113;22;20027;-73
2024/03/11 01:16:25;;;;;;;16.92;8.88;;;;;;;;;;6270995;22;20395;-73
2024/03/11 01:18:53;;;;;;;19.48;7.75;;;;;;;;;;6274097;22;20011;-73
2024/03/11 01:21:20;;;;;;;10.68;6.15;;;;;;;;;;6275050;22;20011;-73
2024/03/11 01:23:47;;;;;;;16.67;9.25;;;;;;;;;;6274032;22;20023;-73
2024/03/11 01:26:16;;;;;;;20.38;10.07;;;;;;;;;;6249121;22;20019;-74
2024/03/11 01:28:42;;;;;;;16.48;9.98;;;;;;;;;;6273344;22;20523;-74
2024/03/11 01:31:10;;;;;;;17.15;9.05;;;;;;;;;;6275140;22;20011;-73
2024/03/11 01:33:36;;;;;;;11.82;8.40;;;;;;;;;;6249802;22;20380;-73
2024/03/11 01:36:02;;;;;;;11.25;6.75;;;;;;;;;;6276262;22;20086;-73
2024/03/11 01:38:28;;;;;;;16.63;7.53;;;;;;;;;;6276984;22;20581;-73
2024/03/11 01:40:54;;;;;;;13.80;7.95;;;;;;;;;;6250573;22;20114;-72
2024/03/11 01:43:19;;;;;;;9.20;6.22;;;;;;;;;;6274895;22;20467;-73
2024/03/11 01:45:48;;;;;;;17.67;6.40;;;;;;;;;;6276400;22;20011;-73
2024/03/11 01:48:14;;;;;;;5.07;3.47;;;;;;;;;;6276237;22;20011;-73
2024/03/11 01:50:40;;;;;;;8.02;4.90;;;;;;;;;;6275557;22;20087;-72
2024/03/11 01:53:05;;;;;;;5.20;3.85;;;;;;;;;;6247832;22;20043;-72
2024/03/11 01:55:32;;;;;;;8.32;4.68;;;;;;;;;;6247911;22;20451;-73
2024/03/11 01:57:58;;;;;;;4.60;4.20;;;;;;;;;;6273346;22;20109;-72
2024/03/11 02:00:24;;;;;;;4.32;3.92;;;;;;;;;;6273519;22;20015;-73
2024/03/11 02:02:53;;;;;;;5.93;4.93;;;;;;;;;;6247249;22;20012;-72
2024/03/11 02:05:19;;;;;;;6.10;4.45;;;;;;;;;;6273302;22;20016;-73
2024/03/11 02:07:46;;;;;;;4.45;3.60;;;;;;;;;;6274426;22;20043;-74
2024/03/11 02:10:15;;;;;;;5.55;4.15;;;;;;;;;;6273838;22;20050;-73
2024/03/11 02:12:42;;;;;;;4.03;3.65;;;;;;;;;;6273747;22;20015;-73
2024/03/11 02:15:11;;;;;;;3.70;3.40;;;;;;;;;;6273027;22;20126;-73
2024/03/11 02:17:40;;;;;;;4.07;3.78;;;;;;;;;;6274612;22;20026;-73
2024/03/11 02:20:16;;;;;;;9.02;5.53;;;;;;;;;;6273565;22;20003;-73
2024/03/11 02:22:46;;;;;;;12.45;6.60;;;;;;;;;;6272999;22;20815;-72
2024/03/11 02:25:20;;;;;;;17.13;8.73;;;;;;;;;;6246933;22;20488;-73
2024/03/11 02:27:49;;;;;;;11.88;7.68;;;;;;;;;;6273841;22;20073;-73
2024/03/11 02:30:16;;;;;;;11.38;6.32;;;;;;;;;;6298997;22;20007;-73
2024/03/11 02:32:42;;;;;;;15.13;7.03;;;;;;;;;;6272560;22;20018;-73
2024/03/11 02:35:08;;;;;;;14.57;8.70;;;;;;;;;;6246341;22;20335;-73
2024/03/11 02:37:34;;;;;;;12.75;7.40;;;;;;;;;;6273664;22;20499;-72
2024/03/11 02:40:03;;;;;;;8.73;5.43;;;;;;;;;;6247611;22;20086;-73
2024/03/11 02:42:30;;;;;;;8.20;6.63;;;;;;;;;;6273830;22;20351;-73
2024/03/11 02:44:57;;;;;;;10.52;5.97;;;;;;;;;;6273361;22;20042;-73
2024/03/11 02:47:23;;;;;;;7.38;5.40;;;;;;;;;;6272795;22;20027;-71
2024/03/11 02:49:50;;;;;;;8.90;5.68;;;;;;;;;;6274153;22;20019;-73
2024/03/11 02:52:17;;;;;;;10.45;5.35;;;;;;;;;;6272443;22;20467;-73
2024/03/11 02:54:48;;;;;;;7.00;5.00;;;;;;;;;;6272743;22;20043;-73
2024/03/11 02:57:14;;;;;;;9.05;5.15;;;;;;;;;;6272689;22;20345;-72
2024/03/11 02:59:40;;;;;;;9.68;5.43;;;;;;;;;;6273919;22;20015;-72
2024/03/11 03:02:08;;;;;;;9.25;5.20;;;;;;;;;;6274837;22;20011;-72
2024/03/11 03:04:34;;;;;;;7.68;4.85;;;;;;;;;;6272784;22;20035;-73
2024/03/11 03:07:00;;;;;;;5.32;4.63;;;;;;;;;;6250151;22;20015;-73
2024/03/11 03:09:27;;;;;;;6.30;5.00;;;;;;;;;;6279426;22;20505;-73
2024/03/11 03:11:54;;;;;;;5.45;4.95;;;;;;;;;;6278647;22;20011;-73
2024/03/11 03:14:21;;;;;;;11.10;7.15;;;;;;;;;;6273865;22;20073;-72
2024/03/11 03:16:47;;;;;;;14.35;6.95;;;;;;;;;;6271932;22;20589;-73
2024/03/11 03:19:15;;;;;;;10.82;6.72;;;;;;;;;;6273988;22;20043;-73
2024/03/11 03:21:40;;;;;;;12.13;6.35;;;;;;;;;;6273089;22;20073;-73
2024/03/11 03:24:06;;;;;;;4.60;3.65;;;;;;;;;;6271236;22;20538;-72
2024/03/11 03:26:32;;;;;;;8.32;6.03;;;;;;;;;;6273437;22;20019;-73
2024/03/11 03:28:58;;;;;;;14.02;6.97;;;;;;;;;;6272513;22;20090;-73
2024/03/11 03:31:27;;;;;;;9.27;6.10;;;;;;;;;;6245774;22;20447;-73
2024/03/11 03:33:53;;;;;;;8.05;6.47;;;;;;;;;;6244122;22;20105;-73
2024/03/11 03:36:19;;;;;;;7.60;6.47;;;;;;;;;;6271924;22;20141;-74
2024/03/11 03:38:45;;;;;;;6.25;5.40;;;;;;;;;;6271876;22;20016;-74
2024/03/11 03:41:11;;;;;;;10.50;5.47;;;;;;;;;;6272295;22;20012;-74
2024/03/11 03:43:37;;;;;;;16.25;6.95;;;;;;;;;;6196625;23;20029;-74
2024/03/11 03:46:03;;;;;;;5.53;4.78;;;;;;;;;;6117456;23;20466;-73
2024/03/11 03:48:29;;;;;;;5.68;4.55;;;;;;;;;;6116845;23;20017;-73
2024/03/11 03:50:55;;;;;;;6.00;5.40;;;;;;;;;;6117128;23;20063;-73
2024/03/11 03:53:22;;;;;;;6.85;5.65;;;;;;;;;;6154378;22;20030;-74
2024/03/11 03:55:49;;;;;;;5.97;5.03;;;;;;;;;;6271106;22;20117;-73
2024/03/11 03:58:15;;;;;;;6.75;4.82;;;;;;;;;;6273551;22;20102;-73
2024/03/11 04:00:41;;;;;;;9.40;4.93;;;;;;;;;;6271807;22;20035;-74
2024/03/11 04:03:07;;;;;;;3.60;2.70;;;;;;;;;;6272801;22;20102;-73
2024/03/11 04:05:33;;;;;;;3.05;2.80;;;;;;;;;;6272968;22;20043;-73
2024/03/11 04:07:59;;;;;;;5.57;4.68;;;;;;;;;;6273739;22;20008;-74
2024/03/11 04:10:26;;;;;;;4.57;3.80;;;;;;;;;;6273414;22;20020;-74
2024/03/11 04:12:55;;;;;;;3.65;2.95;;;;;;;;;;6272948;22;20018;-75
2024/03/11 04:15:23;;;;;;;3.45;3.15;;;;;;;;;;6273601;22;20015;-75
2024/03/11 04:17:49;;;;;;;6.25;4.63;;;;;;;;;;6271458;22;20027;-73
2024/03/11 04:20:15;;;;;;;5.63;4.53;;;;;;;;;;6273703;22;20069;-73
2024/03/11 04:22:44;;;;;;;10.27;6.28;;;;;;;;;;6271341;22;20468;-73
2024/03/11 04:25:15;;;;;;;4.93;4.53;;;;;;;;;;6272116;22;20020;-72
2024/03/11 04:27:41;;;;;;;7.37;4.80;;;;;;;;;;6272761;22;20018;-73
2024/03/11 04:30:07;;;;;;;5.85;4.90;;;;;;;;;;6269860;22;20375;-74
2024/03/11 04:32:33;;;;;;;9.00;6.18;;;;;;;;;;6271658;22;20012;-74
2024/03/11 04:34:59;;;;;;;8.13;4.65;;;;;;;;;;6269537;22;20020;-73
2024/03/11 04:37:25;;;;;;;6.25;5.68;;;;;;;;;;6272118;22;20023;-73
2024/03/11 04:39:50;;;;;;;5.35;4.85;;;;;;;;;;6245093;22;20012;-73
2024/03/11 04:42:17;;;;;;;4.95;3.75;;;;;;;;;;6270671;22;20023;-73
2024/03/11 04:44:42;;;;;;;5.05;4.32;;;;;;;;;;6271620;22;20095;-75
2024/03/11 04:47:08;;;;;;;8.10;7.30;;;;;;;;;;6271126;22;20019;-75
2024/03/11 04:49:34;;;;;;;5.78;4.75;;;;;;;;;;6297488;22;20012;-74
2024/03/11 04:52:01;;;;;;;10.57;5.72;;;;;;;;;;6273456;22;20333;-74
2024/03/11 04:54:27;;;;;;;5.47;4.65;;;;;;;;;;6295784;22;20032;-74
2024/03/11 04:56:53;;;;;;;6.18;5.57;;;;;;;;;;6270095;22;20029;-73
2024/03/11 04:59:19;;;;;;;2.63;2.50;;;;;;;;;;6271961;22;20007;-73
2024/03/11 05:01:44;;;;;;;5.28;4.00;;;;;;;;;;6272585;22;20062;-73
2024/03/11 05:04:10;;;;;;;3.88;3.30;;;;;;;;;;6272351;22;20372;-75
2024/03/11 05:06:37;;;;;;;5.32;4.75;;;;;;;;;;6298018;22;20027;-75
2024/03/11 05:09:03;;;;;;;4.63;4.22;;;;;;;;;;6247278;22;20016;-75
2024/03/11 05:11:30;;;;;;;12.40;5.18;;;;;;;;;;6275507;22;20341;-74
2024/03/11 05:13:56;;;;;;;11.75;5.32;;;;;;;;;;6272423;22;20019;-74
2024/03/11 05:16:22;;;;;;;8.35;4.97;;;;;;;;;;6275205;22;20020;-75
2024/03/11 05:18:48;;;;;;;4.55;4.15;;;;;;;;;;6272914;22;20038;-75
2024/03/11 05:21:14;;;;;;;15.10;7.10;;;;;;;;;;6273271;22;20012;-72
2024/03/11 05:23:40;;;;;;;29.85;6.25;;;;;;;;;;6271268;22;20050;-72
2024/03/11 05:26:06;;;;;;;4.88;4.47;;;;;;;;;;6274920;22;20011;-73
2024/03/11 05:28:33;;;;;;;5.63;5.07;;;;;;;;;;6275177;22;20012;-71
2024/03/11 05:30:58;;;;;;;10.23;5.97;;;;;;;;;;6272859;22;20011;-73
2024/03/11 05:33:24;;;;;;;10.15;5.70;;;;;;;;;;6271081;22;20095;-71
2024/03/11 05:35:50;;;;;;;6.78;5.70;;;;;;;;;;6271946;22;20007;-72
2024/03/11 05:38:16;;;;;;;9.77;6.05;;;;;;;;;;6273843;22;20073;-72
2024/03/11 05:40:43;;;;;;;13.10;6.55;;;;;;;;;;6273573;22;20069;-73
2024/03/11 05:43:09;;;;;;;10.88;6.80;;;;;;;;;;6270177;22;20016;-71
2024/03/11 05:45:35;;;;;;;7.07;5.05;;;;;;;;;;6273831;22;20008;-73
2024/03/11 05:48:04;;;;;;;7.30;3.80;;;;;;;;;;6245573;22;20019;-72
2024/03/11 05:50:30;;;;;;;9.80;7.65;;;;;;;;;;6271519;22;20008;-72
2024/03/11 05:52:56;;;;;;;10.63;6.18;;;;;;;;;;6270367;22;20375;-73
2024/03/11 05:55:23;;;;;;;10.15;7.55;;;;;;;;;;6298197;22;20008;-73
2024/03/11 05:57:49;;;;;;;10.82;7.20;;;;;;;;;;6271491;22;20024;-72
2024/03/11 06:00:18;;;;;;;11.60;6.60;;;;;;;;;;6273884;22;20054;-74
2024/03/11 06:02:44;;;;;;;12.38;6.75;;;;;;;;;;6297082;22;20047;-71
2024/03/11 06:05:10;;;;;;;7.88;6.80;;;;;;;;;;6271222;22;20077;-73
2024/03/11 06:07:37;;;;;;;9.05;6.57;;;;;;;;;;6273429;22;20091;-73
2024/03/11 06:10:02;;;;;;;10.23;6.32;;;;;;;;;;6273376;22;20091;-72
2024/03/11 06:12:31;;;;;;;8.23;7.22;;;;;;;;;;6271777;22;20007;-73
2024/03/11 06:14:57;;;;;;;10.55;6.70;;;;;;;;;;6295974;22;20087;-75
2024/03/11 06:17:22;;;;;;;10.70;6.75;;;;;;;;;;6271952;22;20047;-74
2024/03/11 06:19:48;;;;;;;9.00;6.35;;;;;;;;;;6273000;22;20019;-72
2024/03/11 06:22:16;;;;;;;11.23;7.88;;;;;;;;;;6246718;22;20016;-72
2024/03/11 06:24:41;;;;;;;22.30;7.45;;;;;;;;;;6271864;22;20359;-73
2024/03/11 06:27:07;;;;;;;10.13;7.30;;;;;;;;;;6272118;22;20353;-73
2024/03/11 06:29:33;;;;;;;15.13;7.63;;;;;;;;;;6296464;22;20012;-74
2024/03/11 06:31:59;;;;;;;6.80;5.68;;;;;;;;;;6221995;22;20456;-74
2024/03/11 06:34:27;;;;;;;12.45;6.05;;;;;;;;;;6272015;22;20081;-72
2024/03/11 06:36:54;;;;;;;7.30;5.68;;;;;;;;;;6272139;22;20503;-72
2024/03/11 06:39:21;;;;;;;7.18;6.50;;;;;;;;;;6297646;22;20103;-74
2024/03/11 06:41:50;;;;;;;12.15;7.05;;;;;;;;;;6272685;22;20333;-74
2024/03/11 06:44:17;;;;;;;8.98;6.47;;;;;;;;;;6272040;22;20020;-74
2024/03/11 06:46:43;;;;;;;9.32;6.15;;;;;;;;;;6275580;22;20012;-77
2024/03/11 06:49:09;;;;;;;4.65;4.25;;;;;;;;;;6276759;22;20022;-76
2024/03/11 06:51:35;;;;;;;8.35;4.50;;;;;;;;;;6273950;22;20012;-74
2024/03/11 06:54:01;;;;;;;17.13;5.75;;;;;;;;;;6244715;22;20031;-75
2024/03/11 06:56:27;;;;;;;4.60;4.22;;;;;;;;;;6273934;22;20015;-75
2024/03/11 06:58:53;;;;;;;6.45;3.33;;;;;;;;;;6247175;22;20011;-75
2024/03/11 07:01:19;;;;;;;3.13;2.90;;;;;;;;;;6299106;22;20034;-74
2024/03/11 07:03:45;;;;;;;5.10;2.92;;;;;;;;;;6271584;22;20484;-74
2024/03/11 07:06:11;;;;;;;4.60;4.20;;;;;;;;;;6274769;22;20128;-75
2024/03/11 07:08:37;;;;;;;5.45;3.63;;;;;;;;;;6273896;22;20020;-75
2024/03/11 07:11:03;;;;;;;6.57;3.35;;;;;;;;;;6273205;22;20016;-75
2024/03/11 07:13:29;;;;;;;3.90;3.60;;;;;;;;;;6273383;22;20015;-75
2024/03/11 07:15:56;;;;;;;3.20;2.90;;;;;;;;;;6274639;22;20008;-75
2024/03/11 07:18:43;;;;;;;3.42;2.50;;;;;;;;;;6274533;22;20094;-75
2024/03/11 07:21:11;;;;;;;4.30;4.00;;;;;;;;;;6273472;22;20023;-75
2024/03/11 07:23:37;;;;;;;4.00;3.40;;;;;;;;;;6272715;22;20024;-74
2024/03/11 07:26:04;;;;;;;6.10;3.38;;;;;;;;;;6275412;22;20557;-74
2024/03/11 07:28:31;;;;;;;2.63;2.42;;;;;;;;;;6274307;22;20008;-74
2024/03/11 07:30:57;;;;;;;3.92;3.60;;;;;;;;;;6277132;22;20015;-78
2024/03/11 07:33:23;;;;;;;3.17;2.97;;;;;;;;;;6249792;22;20020;-79
2024/03/11 07:35:50;;;;;;;3.10;2.90;;;;;;;;;;6275518;22;20014;-76
2024/03/11 07:38:16;;;;;;;2.20;2.10;;;;;;;;;;6279340;22;20026;-76
2024/03/11 07:40:42;;;;;;;2.25;2.10;;;;;;;;;;6284108;22;20065;-75
2024/03/11 07:43:08;;;;;;;3.40;3.20;;;;;;;;;;6283151;22;20011;-75
2024/03/11 07:45:34;;;;;;;5.60;2.90;;;;;;;;;;6307610;22;20391;-74
2024/03/11 07:48:19;;;;;;;2.42;2.25;;;;;;;;;;6281808;22;20012;-73
2024/03/11 07:50:45;;;;;;;3.17;2.97;;;;;;;;;;6282185;22;20008;-74
2024/03/11 07:53:14;;;;;;;10.15;2.85;;;;;;;;;;6271726;22;20026;-72
2024/03/11 07:55:40;;;;;;;2.30;2.20;;;;;;;;;;6271759;22;20095;-72
2024/03/11 07:58:07;;;;;;;2.80;2.60;;;;;;;;;;6272199;22;20030;-72
2024/03/11 08:00:36;;;;;;;2.92;2.50;;;;;;;;;;6271899;22;20086;-73
2024/03/11 08:03:03;;;;;;;3.58;3.28;;;;;;;;;;6273124;22;20050;-72
2024/03/11 08:05:29;;;;;;;3.20;2.90;;;;;;;;;;6276880;22;20046;-74
2024/03/11 08:07:55;;;;;;;3.03;2.83;;;;;;;;;;6273463;22;20011;-74
2024/03/11 08:10:21;;;;;;;6.35;3.13;;;;;;;;;;6274731;22;20019;-73
2024/03/11 08:12:47;;;;;;;2.67;2.47;;;;;;;;;;6245085;22;20011;-73
2024/03/11 08:15:14;;;;;;;3.10;2.70;;;;;;;;;;6272127;22;20012;-73
2024/03/11 08:17:43;;;;;;;4.50;2.63;;;;;;;;;;6271215;22;20023;-73
2024/03/11 08:20:10;;;;;;;2.92;2.72;;;;;;;;;;6273713;22;20065;-72
2024/03/11 08:22:42;;;;;;;2.10;2.00;;;;;;;;;;6246983;22;20016;-74
2024/03/11 08:25:08;;;;;;;2.60;2.50;;;;;;;;;;6270719;22;20482;-74
2024/03/11 08:27:36;;;;;;;3.47;2.78;;;;;;;;;;6273073;22;20022;-74
2024/03/11 08:30:04;;;;;;;6.65;3.33;;;;;;;;;;6245439;22;20008;-71
2024/03/11 08:32:30;;;;;;;2.35;2.25;;;;;;;;;;6272701;22;20011;-72
2024/03/11 08:34:56;;;;;;;3.17;2.97;;;;;;;;;;6244901;22;20530;-72
2024/03/11 08:37:22;;;;;;;3.60;3.30;;;;;;;;;;6271476;22;20023;-72
2024/03/11 08:39:48;;;;;;;4.45;4.05;;;;;;;;;;6271272;22;20019;-74
2024/03/11 08:42:14;;;;;;;3.25;2.95;;;;;;;;;;6273032;22;20144;-74
2024/03/11 08:44:39;;;;;;;2.55;2.35;;;;;;;;;;6271651;22;20020;-75
2024/03/11 08:47:06;;;;;;;2.50;2.30;;;;;;;;;;6270773;22;20050;-75
2024/03/11 08:49:33;;;;;;;3.47;2.50;;;;;;;;;;6274328;22;20414;-74
2024/03/11 08:52:00;;;;;;;2.45;2.25;;;;;;;;;;6273462;22;20057;-73
2024/03/11 08:54:28;;;;;;;2.35;2.25;;;;;;;;;;6272231;22;20043;-74
2024/03/11 08:56:56;;;;;;;2.75;2.55;;;;;;;;;;6272105;22;20041;-74
2024/03/11 08:59:23;;;;;;;2.47;2.38;;;;;;;;;;6272732;22;20090;-73
2024/03/11 09:01:49;;;;;;;2.78;2.58;;;;;;;;;;6272803;22;20477;-74
2024/03/11 09:04:15;;;;;;;6.88;2.92;;;;;;;;;;6272356;22;20059;-74
2024/03/11 09:06:43;;;;;;;2.70;2.47;;;;;;;;;;6273687;22;20061;-75
2024/03/11 09:09:09;;;;;;;3.00;1.80;;;;;;;;;;6273634;22;20007;-76
2024/03/11 09:11:37;;;;;;;3.10;2.80;;;;;;;;;;6271169;22;20089;-74
2024/03/11 09:14:04;;;;;;;4.00;2.95;;;;;;;;;;6269242;22;20023;-75
2024/03/11 09:16:30;;;;;;;2.33;2.22;;;;;;;;;;6272252;22;20020;-74
2024/03/11 09:18:55;;;;;;;3.20;3.00;;;;;;;;;;6273382;22;20536;-74
2024/03/11 09:21:24;;;;;;;2.95;2.75;;;;;;;;;;6274273;22;20012;-75
2024/03/11 09:23:51;;;;;;;3.03;2.83;;;;;;;;;;6272565;22;20012;-75
2024/03/11 09:26:17;;;;;;;3.92;3.63;;;;;;;;;;6272151;22;20106;-75
2024/03/11 09:28:46;;;;;;;2.65;2.53;;;;;;;;;;6273055;22;20011;-74
2024/03/11 09:31:13;;;;;;;3.30;3.10;;;;;;;;;;6271014;22;20008;-74
2024/03/11 09:33:41;;;;;;;2.50;2.30;;;;;;;;;;6270328;22;20020;-74
2024/03/11 09:36:07;;;;;;;3.55;3.33;;;;;;;;;;6272823;22;20015;-74
2024/03/11 09:38:33;;;;;;;4.45;3.15;;;;;;;;;;6273131;22;20024;-74
2024/03/11 09:41:00;;;;;;;3.40;3.20;;;;;;;;;;6272833;22;20015;-74
2024/03/11 09:43:29;;;;;;;6.28;3.72;;;;;;;;;;6244785;22;20012;-74
2024/03/11 09:45:55;;;;;;;3.00;2.70;;;;;;;;;;6270656;22;20427;-75
2024/03/11 09:48:25;;;;;;;3.50;3.30;;;;;;;;;;6273000;22;20011;-75
2024/03/11 09:50:52;;;;;;;2.42;2.25;;;;;;;;;;6273540;22;20011;-76
2024/03/11 09:53:21;;;;;;;2.92;2.78;;;;;;;;;;6247369;22;20012;-75
2024/03/11 09:55:47;;;;;;;2.80;2.60;;;;;;;;;;6274913;22;20355;-75
2024/03/11 09:58:15;;;;;;;2.72;2.58;;;;;;;;;;6273369;22;20019;-74
2024/03/11 10:00:48;;;;;;;1.92;1.83;;;;;;;;;;6276089;22;20054;-75
2024/03/11 10:03:14;;;;;;;4.13;3.72;;;;;;;;;;6274196;22;20039;-74
2024/03/11 10:05:40;;;;;;;3.53;3.22;;;;;;;;;;6276159;22;20023;-74
2024/03/11 10:08:06;;;;;;;6.20;3.42;;;;;;;;;;6274268;22;20091;-74
2024/03/11 10:10:32;;;;;;;3.35;3.08;;;;;;;;;;6275781;22;20027;-73
2024/03/11 10:13:04;;;;;;;5.18;3.15;;;;;;;;;;6274306;22;20348;-75
2024/03/11 10:15:32;;;;;;;3.85;3.45;;;;;;;;;;6276168;22;20335;-74
2024/03/11 10:18:02;;;;;;;3.78;3.50;;;;;;;;;;6273670;22;20110;-75
2024/03/11 10:20:34;;;;;;;4.53;3.55;;;;;;;;;;6274597;22;20486;-74
2024/03/11 10:23:04;;;;;;;4.47;3.20;;;;;;;;;;6273093;22;20007;-73
2024/03/11 10:25:31;;;;;;;6.15;4.90;;;;;;;;;;6276782;22;20007;-74
2024/03/11 10:27:58;;;;;;;5.10;3.60;;;;;;;;;;6300412;22;20022;-75
2024/03/11 10:30:26;;;;;;;7.45;3.67;;;;;;;;;;6274316;22;20114;-74
2024/03/11 10:32:55;;;;;;;4.05;3.75;;;;;;;;;;6273138;22;20016;-74
2024/03/11 10:42:32;;;;;;;6.43;4.07;;;;;;;;;;6274361;22;20020;-75
2024/03/11 10:44:59;;;;;;;3.92;3.63;;;;;;;;;;6195541;22;20026;-74
2024/03/11 10:47:24;;;;;;;3.63;3.33;;;;;;;;;;6221387;22;20050;-75
2024/03/11 10:49:51;;;;;;;4.22;3.30;;;;;;;;;;6197133;22;20549;-75
2024/03/11 10:52:20;;;;;;;4.85;4.45;;;;;;;;;;6247213;22;20018;-73
2024/03/11 10:54:47;;;;;;;3.28;3.00;;;;;;;;;;6245814;22;20016;-74
2024/03/11 10:57:26;;;;;;;3.45;2.80;;;;;;;;;;6222519;22;20077;-74
2024/03/11 10:59:53;;;;;;;4.00;3.70;;;;;;;;;;6271852;22;20038;-75
2024/03/11 11:02:22;;;;;;;5.25;3.90;;;;;;;;;;6223057;22;20011;-75
2024/03/11 11:04:52;;;;;;;3.95;3.65;;;;;;;;;;6196905;22;20113;-74
2024/03/11 11:07:20;;;;;;;6.00;3.90;;;;;;;;;;6272765;22;20324;-74
2024/03/11 11:09:49;;;;;;;5.50;3.58;;;;;;;;;;6196386;22;20015;-74
2024/03/11 11:12:22;;;;;;;5.82;3.78;;;;;;;;;;6223274;22;20003;-74
2024/03/11 11:14:48;;;;;;;;;;;;;;;;;;6219952;22;20020;-74
2024/03/11 11:17:18;;;;;;;3.75;3.45;;;;;;;;;;6272161;22;20000;-73
2024/03/11 11:19:47;;;;;;;4.53;3.92;;;;;;;;;;6198630;22;20008;-75
2024/03/11 11:22:34;;;;;;;5.28;4.78;;;;;;;;;;6195525;22;20011;-74
2024/03/11 11:25:18;;;;;;;4.75;4.30;;;;;;;;;;6268463;22;20016;-74
2024/03/11 11:27:49;;;;;;;4.45;4.05;;;;;;;;;;6196112;22;20023;-74
2024/03/11 11:30:17;;;;;;;;;;;;;;;;;;6196458;22;20016;-74
2024/03/11 11:32:43;;;;;;;5.55;4.55;;;;;;;;;;6246278;22;19990;-74
2024/03/11 11:35:09;;;;;;;4.55;4.13;;;;;;;;;;6162890;22;20053;-74
2024/03/11 11:37:36;;;;;;;4.60;3.70;;;;;;;;;;6087714;23;20058;-74
2024/03/11 11:40:21;;;;;;;4.05;3.70;;;;;;;;;;6063525;23;20049;-73
2024/03/11 11:42:49;;;;;;;4.15;3.35;;;;;;;;;;6038394;22;20042;-74
2024/03/11 11:45:39;;;;;;;3.85;3.60;;;;;;;;;;6093956;23;20010;-76
2024/03/11 11:48:20;;;;;;;3.38;3.03;;;;;;;;;;6057971;23;20020;-74
2024/03/11 11:50:46;;;;;;;10.18;4.28;;;;;;;;;;6045201;23;20362;-73
2024/03/11 11:53:16;;;;;;;3.88;3.28;;;;;;;;;;6041455;23;20022;-75
2024/03/11 11:55:49;;;;;;;4.40;4.00;;;;;;;;;;6091977;23;20006;-74
2024/03/11 11:58:42;;;;;;;4.18;3.85;;;;;;;;;;6078531;23;20450;-74
2024/03/11 12:01:10;;;;;;;6.97;4.45;;;;;;;;;;6045585;23;20014;-74
2024/03/11 12:04:09;;;;;;;3.78;3.47;;;;;;;;;;6196960;22;20030;-73
2024/03/11 12:06:35;;;;;;;3.45;3.15;;;;;;;;;;6195805;22;20012;-73
2024/03/11 12:09:12;;;;;;;4.15;3.85;;;;;;;;;;6194950;22;20022;-73
2024/03/11 12:11:45;;;;;;;4.20;3.90;;;;;;;;;;6197924;22;20035;-74
2024/03/11 12:14:11;;;;;;;3.47;3.22;;;;;;;;;;6204225;22;20026;-74
2024/03/11 12:16:38;;;;;;;3.65;3.38;;;;;;;;;;6220476;22;20531;-73
2024/03/11 12:19:09;;;;;;;4.00;3.60;;;;;;;;;;6195318;22;20015;-75
2024/03/11 12:21:38;;;;;;;5.30;4.10;;;;;;;;;;6196508;22;20012;-74
2024/03/11 12:24:10;;;;;;;3.60;3.40;;;;;;;;;;6218526;22;20023;-74
2024/03/11 12:26:36;;;;;;;3.13;2.92;;;;;;;;;;6196742;22;20043;-74
2024/03/11 12:29:07;;;;;;;2.90;2.70;;;;;;;;;;6220501;22;20081;-74
2024/03/11 12:31:34;;;;;;;3.67;3.35;;;;;;;;;;6196169;22;20055;-73
2024/03/11 12:34:08;;;;;;;3.03;2.83;;;;;;;;;;6163225;22;20015;-74
2024/03/11 12:36:46;;;;;;;4.07;3.67;;;;;;;;;;6087349;23;20019;-74
2024/03/11 12:39:33;;;;;;;3.42;3.13;;;;;;;;;;6064011;23;20020;-74
2024/03/11 12:42:00;;;;;;;3.83;3.53;;;;;;;;;;6065026;23;20014;-74
2024/03/11 12:44:26;;;;;;;3.38;3.17;;;;;;;;;;6182919;22;20073;-74
2024/03/11 12:46:55;;;;;;;3.47;3.17;;;;;;;;;;6215541;22;20041;-75
2024/03/11 12:49:22;;;;;;;3.90;3.42;;;;;;;;;;6195735;22;20080;-75
2024/03/11 12:51:51;;;;;;;4.10;3.80;;;;;;;;;;6194944;22;20043;-74
2024/03/11 12:54:22;;;;;;;5.93;3.25;;;;;;;;;;6164089;22;20453;-74
2024/03/11 12:57:07;;;;;;;3.28;2.45;;;;;;;;;;6063950;23;20467;-75
2024/03/11 12:59:38;;;;;;;2.55;2.45;;;;;;;;;;6089141;23;20431;-74
2024/03/11 13:02:27;;;;;;;3.53;3.22;;;;;;;;;;6064204;23;20097;-73
2024/03/11 13:04:54;;;;;;;3.42;2.60;;;;;;;;;;6186324;22;20028;-75
2024/03/11 13:07:30;;;;;;;3.40;2.50;;;;;;;;;;6044306;23;20493;-75
2024/03/11 13:09:56;;;;;;;2.83;2.63;;;;;;;;;;6045616;23;20018;-74
2024/03/11 13:12:27;;;;;;;2.67;2.47;;;;;;;;;;6044466;23;20021;-74
2024/03/11 13:14:56;;;;;;;2.35;2.20;;;;;;;;;;6068664;23;20342;-73
2024/03/11 13:17:32;;;;;;;4.35;2.60;;;;;;;;;;6116897;23;20026;-75
2024/03/11 13:19:59;;;;;;;3.25;3.00;;;;;;;;;;6115765;23;20429;-74
2024/03/11 13:22:30;;;;;;;2.55;2.35;;;;;;;;;;6118149;23;20014;-74
2024/03/11 13:25:04;;;;;;;2.65;2.55;;;;;;;;;;6257441;22;20498;-74
2024/03/11 13:27:31;;;;;;;2.95;2.75;;;;;;;;;;6274435;22;20094;-74
2024/03/11 13:29:57;;;;;;;2.85;2.65;;;;;;;;;;6274141;22;20007;-73
2024/03/11 13:32:23;;;;;;;2.25;2.15;;;;;;;;;;6273988;22;20094;-73
2024/03/11 13:34:49;;;;;;;2.60;2.50;;;;;;;;;;6273081;22;20043;-74
2024/03/11 13:37:16;;;;;;;3.08;2.88;;;;;;;;;;6273721;22;20069;-73
2024/03/11 13:39:44;;;;;;;2.75;2.60;;;;;;;;;;6247366;22;20391;-74
2024/03/11 13:42:12;;;;;;;4.50;2.78;;;;;;;;;;6221415;22;20037;-74
2024/03/11 13:44:38;;;;;;;3.33;3.03;;;;;;;;;;6273762;22;20057;-75
2024/03/11 13:47:04;;;;;;;2.70;2.50;;;;;;;;;;6273540;22;20065;-74
2024/03/11 13:49:33;;;;;;;2.92;2.72;;;;;;;;;;6272308;22;20069;-74
2024/03/11 13:52:05;;;;;;;3.33;3.03;;;;;;;;;;6272650;22;20016;-73
2024/03/11 13:54:33;;;;;;;3.05;2.85;;;;;;;;;;6297288;22;20011;-75
2024/03/11 13:57:00;;;;;;;3.15;2.83;;;;;;;;;;6247434;22;20016;-73
2024/03/11 13:59:26;;;;;;;3.58;3.22;;;;;;;;;;6273512;22;20035;-73
2024/03/11 14:01:52;;;;;;;2.50;2.35;;;;;;;;;;6274468;22;20008;-74
2024/03/11 14:04:18;;;;;;;3.20;2.63;;;;;;;;;;6270288;22;20028;-74
2024/03/11 14:06:44;;;;;;;2.75;2.53;;;;;;;;;;6298555;22;20018;-74
2024/03/11 14:09:19;;;;;;;2.53;2.40;;;;;;;;;;6271860;22;20039;-74
2024/03/11 14:11:45;;;;;;;3.08;2.78;;;;;;;;;;6274977;22;20098;-74
2024/03/11 14:14:13;;;;;;;2.85;2.65;;;;;;;;;;6270621;22;20414;-74
2024/03/11 14:16:46;;;;;;;3.08;2.88;;;;;;;;;;6272829;22;20060;-74
2024/03/11 14:19:13;;;;;;;2.72;2.63;;;;;;;;;;6272948;22;20012;-73
2024/03/11 14:21:39;;;;;;;3.53;3.22;;;;;;;;;;6272869;22;20534;-74
2024/03/11 14:24:09;;;;;;;5.22;3.20;;;;;;;;;;6270745;22;20086;-73
2024/03/11 14:26:35;;;;;;;3.13;2.90;;;;;;;;;;6247014;22;20535;-73
2024/03/11 14:29:01;;;;;;;2.35;2.25;;;;;;;;;;6246602;22;20508;-75
2024/03/11 14:31:27;;;;;;;3.33;3.13;;;;;;;;;;6273688;22;20017;-73
2024/03/11 14:33:53;;;;;;;3.60;2.17;;;;;;;;;;6271981;22;20425;-73
2024/03/11 14:36:19;;;;;;;4.10;2.45;;;;;;;;;;6272523;22;20015;-73
2024/03/11 14:38:46;;;;;;;3.55;3.08;;;;;;;;;;6278081;22;20102;-74
2024/03/11 14:41:12;;;;;;;6.32;3.47;;;;;;;;;;6274604;22;20082;-73
2024/03/11 14:43:44;;;;;;;3.00;2.80;;;;;;;;;;6273502;22;20094;-74
2024/03/11 14:46:10;;;;;;;4.72;2.55;;;;;;;;;;6276467;22;20121;-74
2024/03/11 14:48:38;;;;;;;3.40;2.90;;;;;;;;;;6254222;22;20030;-74
2024/03/11 14:51:04;;;;;;;2.67;2.47;;;;;;;;;;6279361;22;20016;-73